sensor_id;sensor_type;location;lat;lon;timestamp;pressure;altitude;pressure_sealevel;temperature;humidity
77823;BME280;67013;49.730;17.292;2024-02-14T00:00:47;98934.19;;;2.03;73.74
77823;BME280;67013;49.730;17.292;2024-02-14T00:03:16;98934.79;;;2.00;73.77
77823;BME280;67013;49.730;17.292;2024-02-14T00:05:46;98937.44;;;1.97;73.76
77823;BME280;67013;49.730;17.292;2024-02-14T00:08:16;98935.11;;;1.94;73.84
77823;BME280;67013;49.730;17.292;2024-02-14T00:10:45;98935.04;;;1.92;74.08
77823;BME280;67013;49.730;17.292;2024-02-14T00:13:16;98927.70;;;1.91;74.09
77823;BME280;67013;49.730;17.292;2024-02-14T00:15:47;98929.73;;;1.92;74.05
77823;BME280;67013;49.730;17.292;2024-02-14T00:18:16;98928.13;;;1.93;73.77
77823;BME280;67013;49.730;17.292;2024-02-14T00:20:47;98933.20;;;1.96;73.91
77823;BME280;67013;49.730;17.292;2024-02-14T00:23:17;98933.83;;;1.97;73.88
77823;BME280;67013;49.730;17.292;2024-02-14T00:25:46;98934.30;;;1.99;73.87
77823;BME280;67013;49.730;17.292;2024-02-14T00:28:16;98938.26;;;1.99;73.87
77823;BME280;67013;49.730;17.292;2024-02-14T00:30:45;98943.29;;;1.96;74.07
77823;BME280;67013;49.730;17.292;2024-02-14T00:33:15;98936.46;;;1.95;74.05
77823;BME280;67013;49.730;17.292;2024-02-14T00:35:44;98942.48;;;1.95;73.96
77823;BME280;67013;49.730;17.292;2024-02-14T00:38:14;98941.05;;;1.92;73.94
77823;BME280;67013;49.730;17.292;2024-02-14T00:40:44;98948.36;;;1.88;74.11
77823;BME280;67013;49.730;17.292;2024-02-14T00:43:13;98955.61;;;1.86;74.09
77823;BME280;67013;49.730;17.292;2024-02-14T00:45:43;98959.74;;;1.85;74.04
77823;BME280;67013;49.730;17.292;2024-02-14T00:48:12;98958.56;;;1.85;74.10
77823;BME280;67013;49.730;17.292;2024-02-14T00:50:41;98959.25;;;1.84;73.98
77823;BME280;67013;49.730;17.292;2024-02-14T00:53:11;98961.52;;;1.83;73.93
77823;BME280;67013;49.730;17.292;2024-02-14T00:55:42;98961.76;;;1.81;74.06
77823;BME280;67013;49.730;17.292;2024-02-14T00:58:11;98957.18;;;1.79;74.19
77823;BME280;67013;49.730;17.292;2024-02-14T01:00:43;98954.30;;;1.78;74.20
77823;BME280;67013;49.730;17.292;2024-02-14T01:03:13;98955.72;;;1.77;74.28
77823;BME280;67013;49.730;17.292;2024-02-14T01:05:44;98952.18;;;1.74;74.18
77823;BME280;67013;49.730;17.292;2024-02-14T01:08:14;98952.90;;;1.73;74.13
77823;BME280;67013;49.730;17.292;2024-02-14T01:10:44;98951.08;;;1.70;74.21
77823;BME280;67013;49.730;17.292;2024-02-14T01:13:14;98950.98;;;1.67;74.26
77823;BME280;67013;49.730;17.292;2024-02-14T01:15:44;98950.50;;;1.66;74.30
77823;BME280;67013;49.730;17.292;2024-02-14T01:18:13;98948.44;;;1.67;74.20
77823;BME280;67013;49.730;17.292;2024-02-14T01:20:43;98946.38;;;1.67;74.41
77823;BME280;67013;49.730;17.292;2024-02-14T01:23:12;98945.58;;;1.64;74.28
77823;BME280;67013;49.730;17.292;2024-02-14T01:25:42;98946.85;;;1.62;74.28
77823;BME280;67013;49.730;17.292;2024-02-14T01:28:14;98943.19;;;1.59;74.27
77823;BME280;67013;49.730;17.292;2024-02-14T01:30:43;98940.73;;;1.54;74.38
77823;BME280;67013;49.730;17.292;2024-02-14T01:33:13;98939.06;;;1.52;74.61
77823;BME280;67013;49.730;17.292;2024-02-14T01:35:43;98937.73;;;1.51;74.68
77823;BME280;67013;49.730;17.292;2024-02-14T01:38:13;98933.84;;;1.49;74.55
77823;BME280;67013;49.730;17.292;2024-02-14T01:40:45;98933.05;;;1.48;75.00
77823;BME280;67013;49.730;17.292;2024-02-14T01:43:15;98934.29;;;1.46;74.98
77823;BME280;67013;49.730;17.292;2024-02-14T01:45:44;98932.77;;;1.45;75.00
77823;BME280;67013;49.730;17.292;2024-02-14T01:48:14;98935.17;;;1.45;75.08
77823;BME280;67013;49.730;17.292;2024-02-14T01:50:47;98938.59;;;1.46;75.20
77823;BME280;67013;49.730;17.292;2024-02-14T01:53:16;98939.58;;;1.47;75.16
77823;BME280;67013;49.730;17.292;2024-02-14T01:55:46;98941.40;;;1.49;75.15
77823;BME280;67013;49.730;17.292;2024-02-14T01:58:16;98947.31;;;1.52;75.32
77823;BME280;67013;49.730;17.292;2024-02-14T02:00:47;98950.56;;;1.52;75.35
77823;BME280;67013;49.730;17.292;2024-02-14T02:03:16;98952.59;;;1.53;75.27
77823;BME280;67013;49.730;17.292;2024-02-14T02:05:46;98957.00;;;1.55;75.23
77823;BME280;67013;49.730;17.292;2024-02-14T02:08:16;98956.79;;;1.57;75.11
77823;BME280;67013;49.730;17.292;2024-02-14T02:10:46;98956.39;;;1.58;75.04
77823;BME280;67013;49.730;17.292;2024-02-14T02:13:15;98955.86;;;1.59;75.08
77823;BME280;67013;49.730;17.292;2024-02-14T02:15:45;98955.04;;;1.58;75.11
77823;BME280;67013;49.730;17.292;2024-02-14T02:18:14;98951.42;;;1.58;75.10
77823;BME280;67013;49.730;17.292;2024-02-14T02:20:44;98951.09;;;1.58;75.06
77823;BME280;67013;49.730;17.292;2024-02-14T02:23:14;98952.84;;;1.57;75.02
77823;BME280;67013;49.730;17.292;2024-02-14T02:25:44;98953.94;;;1.54;74.88
77823;BME280;67013;49.730;17.292;2024-02-14T02:28:13;98955.39;;;1.51;74.93
77823;BME280;67013;49.730;17.292;2024-02-14T02:30:44;98956.33;;;1.48;74.93
77823;BME280;67013;49.730;17.292;2024-02-14T02:33:14;98959.30;;;1.47;74.89
77823;BME280;67013;49.730;17.292;2024-02-14T02:35:44;98957.98;;;1.44;74.95
77823;BME280;67013;49.730;17.292;2024-02-14T02:38:13;98961.11;;;1.42;74.95
77823;BME280;67013;49.730;17.292;2024-02-14T02:40:43;98962.20;;;1.40;74.87
77823;BME280;67013;49.730;17.292;2024-02-14T02:43:13;98965.34;;;1.37;75.00
77823;BME280;67013;49.730;17.292;2024-02-14T02:45:42;98968.11;;;1.36;74.91
77823;BME280;67013;49.730;17.292;2024-02-14T02:48:12;98968.31;;;1.35;74.95
77823;BME280;67013;49.730;17.292;2024-02-14T02:50:42;98974.90;;;1.33;75.17
77823;BME280;67013;49.730;17.292;2024-02-14T02:53:12;98974.98;;;1.30;75.18
77823;BME280;67013;49.730;17.292;2024-02-14T02:55:43;98974.30;;;1.29;75.36
77823;BME280;67013;49.730;17.292;2024-02-14T02:58:12;98977.56;;;1.29;75.38
77823;BME280;67013;49.730;17.292;2024-02-14T03:00:43;98982.23;;;1.27;75.54
77823;BME280;67013;49.730;17.292;2024-02-14T03:03:12;98981.91;;;1.27;75.53
77823;BME280;67013;49.730;17.292;2024-02-14T03:05:42;98981.59;;;1.26;75.55
77823;BME280;67013;49.730;17.292;2024-02-14T03:08:13;98979.00;;;1.27;75.64
77823;BME280;67013;49.730;17.292;2024-02-14T03:10:43;98982.91;;;1.28;75.65
77823;BME280;67013;49.730;17.292;2024-02-14T03:13:14;98982.55;;;1.29;75.72
77823;BME280;67013;49.730;17.292;2024-02-14T03:15:45;98985.10;;;1.29;75.68
77823;BME280;67013;49.730;17.292;2024-02-14T03:18:16;98986.13;;;1.29;75.61
77823;BME280;67013;49.730;17.292;2024-02-14T03:20:46;98986.65;;;1.29;75.59
77823;BME280;67013;49.730;17.292;2024-02-14T03:23:15;98986.69;;;1.28;75.66
77823;BME280;67013;49.730;17.292;2024-02-14T03:25:45;98989.95;;;1.27;75.45
77823;BME280;67013;49.730;17.292;2024-02-14T03:28:14;98985.81;;;1.28;75.57
77823;BME280;67013;49.730;17.292;2024-02-14T03:30:44;98986.13;;;1.30;75.41
77823;BME280;67013;49.730;17.292;2024-02-14T03:33:13;98990.40;;;1.30;75.44
77823;BME280;67013;49.730;17.292;2024-02-14T03:35:43;98991.08;;;1.30;75.50
77823;BME280;67013;49.730;17.292;2024-02-14T03:38:13;98992.65;;;1.29;75.44
77823;BME280;67013;49.730;17.292;2024-02-14T03:40:42;98994.75;;;1.27;75.19
77823;BME280;67013;49.730;17.292;2024-02-14T03:43:14;98995.81;;;1.26;75.39
77823;BME280;67013;49.730;17.292;2024-02-14T03:45:43;98998.44;;;1.23;75.25
77823;BME280;67013;49.730;17.292;2024-02-14T03:48:13;99000.55;;;1.21;75.30
77823;BME280;67013;49.730;17.292;2024-02-14T03:50:42;99000.11;;;1.19;75.42
77823;BME280;67013;49.730;17.292;2024-02-14T03:53:12;99003.25;;;1.17;75.45
77823;BME280;67013;49.730;17.292;2024-02-14T03:55:43;98997.30;;;1.15;75.39
77823;BME280;67013;49.730;17.292;2024-02-14T03:58:12;99001.77;;;1.13;75.58
77823;BME280;67013;49.730;17.292;2024-02-14T04:00:43;99000.42;;;1.13;75.52
77823;BME280;67013;49.730;17.292;2024-02-14T04:03:14;98998.73;;;1.12;75.46
77823;BME280;67013;49.730;17.292;2024-02-14T04:05:44;98994.14;;;1.11;75.45
77823;BME280;67013;49.730;17.292;2024-02-14T04:08:16;98989.22;;;1.09;75.54
77823;BME280;67013;49.730;17.292;2024-02-14T04:10:46;98988.08;;;1.06;75.59
77823;BME280;67013;49.730;17.292;2024-02-14T04:13:15;98983.34;;;1.04;75.60
77823;BME280;67013;49.730;17.292;2024-02-14T04:15:45;98978.41;;;1.03;75.76
77823;BME280;67013;49.730;17.292;2024-02-14T04:18:15;98972.39;;;1.04;75.88
77823;BME280;67013;49.730;17.292;2024-02-14T04:20:46;98974.21;;;1.05;75.95
77823;BME280;67013;49.730;17.292;2024-02-14T04:23:16;98974.69;;;1.08;75.86
77823;BME280;67013;49.730;17.292;2024-02-14T04:25:47;98980.27;;;1.10;75.75
77823;BME280;67013;49.730;17.292;2024-02-14T04:28:16;98983.86;;;1.11;75.71
77823;BME280;67013;49.730;17.292;2024-02-14T04:30:45;98979.91;;;1.11;75.73
77823;BME280;67013;49.730;17.292;2024-02-14T04:33:16;98982.52;;;1.10;75.71
77823;BME280;67013;49.730;17.292;2024-02-14T04:35:46;98987.69;;;1.09;75.84
77823;BME280;67013;49.730;17.292;2024-02-14T04:38:15;98988.06;;;1.07;75.74
77823;BME280;67013;49.730;17.292;2024-02-14T04:40:46;98992.73;;;1.05;75.68
77823;BME280;67013;49.730;17.292;2024-02-14T04:43:16;98993.98;;;1.03;75.73
77823;BME280;67013;49.730;17.292;2024-02-14T04:45:46;98995.40;;;1.02;75.64
77823;BME280;67013;49.730;17.292;2024-02-14T04:48:16;98996.79;;;1.01;75.71
77823;BME280;67013;49.730;17.292;2024-02-14T04:50:45;98993.04;;;1.00;75.56
77823;BME280;67013;49.730;17.292;2024-02-14T04:53:15;98993.75;;;0.99;75.64
77823;BME280;67013;49.730;17.292;2024-02-14T04:55:45;98991.75;;;0.97;75.72
77823;BME280;67013;49.730;17.292;2024-02-14T04:58:15;98993.69;;;0.94;75.64
77823;BME280;67013;49.730;17.292;2024-02-14T05:00:44;98992.67;;;0.94;75.72
77823;BME280;67013;49.730;17.292;2024-02-14T05:03:14;98990.61;;;0.94;75.62
77823;BME280;67013;49.730;17.292;2024-02-14T05:05:44;98995.58;;;0.94;75.65
77823;BME280;67013;49.730;17.292;2024-02-14T05:08:13;98991.33;;;0.92;75.55
77823;BME280;67013;49.730;17.292;2024-02-14T05:10:44;98991.41;;;0.89;75.57
77823;BME280;67013;49.730;17.292;2024-02-14T05:13:13;98987.23;;;0.86;75.71
77823;BME280;67013;49.730;17.292;2024-02-14T05:15:44;98991.25;;;0.82;75.94
77823;BME280;67013;49.730;17.292;2024-02-14T05:18:14;98997.63;;;0.80;76.26
77823;BME280;67013;49.730;17.292;2024-02-14T05:20:44;98998.63;;;0.82;76.31
77823;BME280;67013;49.730;17.292;2024-02-14T05:23:14;99001.98;;;0.84;76.38
77823;BME280;67013;49.730;17.292;2024-02-14T05:25:45;99003.98;;;0.87;76.36
77823;BME280;67013;49.730;17.292;2024-02-14T05:28:16;99003.88;;;0.91;76.46
77823;BME280;67013;49.730;17.292;2024-02-14T05:30:47;99002.09;;;0.94;76.21
77823;BME280;67013;49.730;17.292;2024-02-14T05:33:16;99000.81;;;0.97;75.93
77823;BME280;67013;49.730;17.292;2024-02-14T05:35:46;99004.71;;;0.99;76.04
77823;BME280;67013;49.730;17.292;2024-02-14T05:38:16;99005.73;;;0.99;75.77
77823;BME280;67013;49.730;17.292;2024-02-14T05:40:47;99008.45;;;1.00;75.75
77823;BME280;67013;49.730;17.292;2024-02-14T05:43:17;99007.76;;;1.00;75.74
77823;BME280;67013;49.730;17.292;2024-02-14T05:45:47;99012.90;;;1.00;75.58
77823;BME280;67013;49.730;17.292;2024-02-14T05:48:16;99009.32;;;1.00;75.68
77823;BME280;67013;49.730;17.292;2024-02-14T05:50:46;99011.38;;;0.99;75.68
77823;BME280;67013;49.730;17.292;2024-02-14T05:53:15;99013.79;;;0.99;75.48
77823;BME280;67013;49.730;17.292;2024-02-14T05:55:45;99016.54;;;0.98;75.46
77823;BME280;67013;49.730;17.292;2024-02-14T05:58:14;99017.27;;;0.97;75.49
77823;BME280;67013;49.730;17.292;2024-02-14T06:00:43;99014.58;;;0.94;75.25
77823;BME280;67013;49.730;17.292;2024-02-14T06:03:13;99019.39;;;0.94;75.31
77823;BME280;67013;49.730;17.292;2024-02-14T06:05:42;99015.98;;;0.93;75.50
77823;BME280;67013;49.730;17.292;2024-02-14T06:08:12;99012.52;;;0.94;75.59
77823;BME280;67013;49.730;17.292;2024-02-14T06:10:41;99013.85;;;0.96;75.46
77823;BME280;67013;49.730;17.292;2024-02-14T06:13:11;99009.37;;;0.98;75.47
77823;BME280;67013;49.730;17.292;2024-02-14T06:15:40;99006.89;;;1.01;75.45
77823;BME280;67013;49.730;17.292;2024-02-14T06:18:10;99011.90;;;1.05;75.27
77823;BME280;67013;49.730;17.292;2024-02-14T06:20:39;99014.37;;;1.10;75.26
77823;BME280;67013;49.730;17.292;2024-02-14T06:23:09;99018.41;;;1.13;75.11
77823;BME280;67013;49.730;17.292;2024-02-14T06:25:39;99021.88;;;1.18;75.15
77823;BME280;67013;49.730;17.292;2024-02-14T06:28:08;99025.52;;;1.23;75.26
77823;BME280;67013;49.730;17.292;2024-02-14T06:30:38;99023.52;;;1.28;75.20
77823;BME280;67013;49.730;17.292;2024-02-14T06:33:07;99025.77;;;1.33;75.16
77823;BME280;67013;49.730;17.292;2024-02-14T06:35:37;99025.82;;;1.38;75.24
77823;BME280;67013;49.730;17.292;2024-02-14T06:38:06;99030.45;;;1.46;75.20
77823;BME280;67013;49.730;17.292;2024-02-14T06:40:36;99027.80;;;1.55;75.18
77823;BME280;67013;49.730;17.292;2024-02-14T06:43:05;99031.11;;;1.65;75.17
77823;BME280;67013;49.730;17.292;2024-02-14T06:45:35;99031.73;;;1.75;74.94
77823;BME280;67013;49.730;17.292;2024-02-14T06:48:07;99032.10;;;1.86;74.66
77823;BME280;67013;49.730;17.292;2024-02-14T06:50:37;99031.09;;;1.97;74.43
77823;BME280;67013;49.730;17.292;2024-02-14T06:53:08;99030.07;;;2.09;74.24
77823;BME280;67013;49.730;17.292;2024-02-14T06:55:37;99036.94;;;2.21;73.92
77823;BME280;67013;49.730;17.292;2024-02-14T06:58:07;99038.50;;;2.32;73.98
77823;BME280;67013;49.730;17.292;2024-02-14T07:00:36;99039.92;;;2.41;73.91
77823;BME280;67013;49.730;17.292;2024-02-14T07:03:06;99042.13;;;2.55;73.46
77823;BME280;67013;49.730;17.292;2024-02-14T07:05:36;99043.35;;;2.65;73.48
77823;BME280;67013;49.730;17.292;2024-02-14T07:08:06;99041.55;;;2.79;73.51
77823;BME280;67013;49.730;17.292;2024-02-14T07:10:35;99038.98;;;2.95;73.33
77823;BME280;67013;49.730;17.292;2024-02-14T07:13:06;99042.58;;;3.11;73.55
77823;BME280;67013;49.730;17.292;2024-02-14T07:15:35;99039.56;;;3.25;72.44
77823;BME280;67013;49.730;17.292;2024-02-14T07:18:05;99039.02;;;3.36;72.26
77823;BME280;67013;49.730;17.292;2024-02-14T07:20:38;99041.86;;;3.49;71.72
77823;BME280;67013;49.730;17.292;2024-02-14T07:23:09;99046.52;;;3.63;71.96
77823;BME280;67013;49.730;17.292;2024-02-14T07:25:38;99043.23;;;3.79;71.72
77823;BME280;67013;49.730;17.292;2024-02-14T07:28:08;99048.10;;;3.97;71.41
77823;BME280;67013;49.730;17.292;2024-02-14T07:30:37;99046.29;;;4.14;71.14
77823;BME280;67013;49.730;17.292;2024-02-14T07:33:07;99046.75;;;4.29;70.46
77823;BME280;67013;49.730;17.292;2024-02-14T07:35:37;99050.20;;;4.48;70.13
77823;BME280;67013;49.730;17.292;2024-02-14T07:38:07;99050.59;;;4.69;69.98
77823;BME280;67013;49.730;17.292;2024-02-14T07:40:36;99053.09;;;4.89;69.10
77823;BME280;67013;49.730;17.292;2024-02-14T07:43:07;99053.48;;;5.10;68.90
77823;BME280;67013;49.730;17.292;2024-02-14T07:45:37;99051.70;;;5.32;68.91
77823;BME280;67013;49.730;17.292;2024-02-14T07:48:07;99054.90;;;5.50;68.35
77823;BME280;67013;49.730;17.292;2024-02-14T07:50:36;99055.04;;;5.63;67.27
77823;BME280;67013;49.730;17.292;2024-02-14T07:53:06;99054.66;;;5.73;66.89
77823;BME280;67013;49.730;17.292;2024-02-14T07:55:36;99052.41;;;5.81;66.44
77823;BME280;67013;49.730;17.292;2024-02-14T07:58:05;99056.17;;;5.86;66.05
77823;BME280;67013;49.730;17.292;2024-02-14T08:00:35;99053.20;;;5.91;66.00
77823;BME280;67013;49.730;17.292;2024-02-14T08:03:05;99059.41;;;5.95;65.46
77823;BME280;67013;49.730;17.292;2024-02-14T08:05:34;99060.75;;;5.96;65.38
77823;BME280;67013;49.730;17.292;2024-02-14T08:08:04;99063.96;;;5.97;65.36
77823;BME280;67013;49.730;17.292;2024-02-14T08:10:34;99062.23;;;5.97;65.56
77823;BME280;67013;49.730;17.292;2024-02-14T08:13:04;99061.52;;;5.94;65.66
77823;BME280;67013;49.730;17.292;2024-02-14T08:15:33;99061.86;;;5.94;65.47
77823;BME280;67013;49.730;17.292;2024-02-14T08:18:03;99059.17;;;5.96;65.65
77823;BME280;67013;49.730;17.292;2024-02-14T08:20:32;99065.82;;;6.03;65.48
77823;BME280;67013;49.730;17.292;2024-02-14T08:23:02;99067.76;;;6.10;65.38
77823;BME280;67013;49.730;17.292;2024-02-14T08:25:31;99063.18;;;6.16;65.36
77823;BME280;67013;49.730;17.292;2024-02-14T08:28:01;99065.00;;;6.25;65.22
77823;BME280;67013;49.730;17.292;2024-02-14T08:30:30;99064.96;;;6.33;64.77
77823;BME280;67013;49.730;17.292;2024-02-14T08:33:00;99065.30;;;6.41;64.59
77823;BME280;67013;49.730;17.292;2024-02-14T08:35:29;99064.14;;;6.48;64.52
77823;BME280;67013;49.730;17.292;2024-02-14T08:37:59;99058.61;;;6.52;64.33
77823;BME280;67013;49.730;17.292;2024-02-14T08:40:29;99062.09;;;6.55;64.22
77823;BME280;67013;49.730;17.292;2024-02-14T08:42:58;99062.29;;;6.58;64.03
77823;BME280;67013;49.730;17.292;2024-02-14T08:45:28;99061.48;;;6.61;64.37
77823;BME280;67013;49.730;17.292;2024-02-14T08:47:58;99066.63;;;6.62;64.23
77823;BME280;67013;49.730;17.292;2024-02-14T08:50:27;99070.34;;;6.64;64.28
77823;BME280;67013;49.730;17.292;2024-02-14T08:52:58;99071.14;;;6.65;64.47
77823;BME280;67013;49.730;17.292;2024-02-14T08:55:28;99071.94;;;6.67;64.39
77823;BME280;67013;49.730;17.292;2024-02-14T08:58:00;99068.15;;;6.69;64.52
77823;BME280;67013;49.730;17.292;2024-02-14T09:00:30;99065.95;;;6.68;64.34
77823;BME280;67013;49.730;17.292;2024-02-14T09:02:59;99064.98;;;6.67;64.51
77823;BME280;67013;49.730;17.292;2024-02-14T09:05:29;99070.36;;;6.67;64.59
77823;BME280;67013;49.730;17.292;2024-02-14T09:07:58;99070.56;;;6.66;64.72
77823;BME280;67013;49.730;17.292;2024-02-14T09:10:28;99071.33;;;6.68;64.43
77823;BME280;67013;49.730;17.292;2024-02-14T09:12:58;99070.12;;;6.68;64.76
77823;BME280;67013;49.730;17.292;2024-02-14T09:15:28;99069.23;;;6.73;64.78
77823;BME280;67013;49.730;17.292;2024-02-14T09:17:59;99073.70;;;6.81;64.62
77823;BME280;67013;49.730;17.292;2024-02-14T09:20:29;99068.85;;;6.84;64.24
77823;BME280;67013;49.730;17.292;2024-02-14T09:22:59;99063.06;;;6.90;64.30
77823;BME280;67013;49.730;17.292;2024-02-14T09:25:28;99063.73;;;6.98;64.05
77823;BME280;67013;49.730;17.292;2024-02-14T09:27:58;99063.50;;;7.10;63.79
77823;BME280;67013;49.730;17.292;2024-02-14T09:30:27;99062.72;;;7.22;63.49
77823;BME280;67013;49.730;17.292;2024-02-14T09:32:58;99063.84;;;7.31;63.11
77823;BME280;67013;49.730;17.292;2024-02-14T09:35:28;99059.80;;;7.39;63.27
77823;BME280;67013;49.730;17.292;2024-02-14T09:37:57;99059.05;;;7.51;63.49
77823;BME280;67013;49.730;17.292;2024-02-14T09:40:27;99058.40;;;7.64;63.24
77823;BME280;67013;49.730;17.292;2024-02-14T09:42:57;99057.65;;;7.82;63.47
77823;BME280;67013;49.730;17.292;2024-02-14T09:45:30;99062.66;;;8.03;62.69
77823;BME280;67013;49.730;17.292;2024-02-14T09:48:02;99067.55;;;8.15;62.24
77823;BME280;67013;49.730;17.292;2024-02-14T09:50:32;99062.81;;;8.33;62.25
77823;BME280;67013;49.730;17.292;2024-02-14T09:53:04;99065.77;;;8.53;61.81
77823;BME280;67013;49.730;17.292;2024-02-14T09:55:34;99063.40;;;8.71;61.47
77823;BME280;67013;49.730;17.292;2024-02-14T09:58:04;99063.45;;;8.89;61.02
77823;BME280;67013;49.730;17.292;2024-02-14T10:00:35;99063.88;;;9.06;61.11
77823;BME280;67013;49.730;17.292;2024-02-14T10:03:06;99066.42;;;9.31;60.79
77823;BME280;67013;49.730;17.292;2024-02-14T10:05:35;99061.71;;;9.62;60.59
77823;BME280;67013;49.730;17.292;2024-02-14T10:08:06;99057.58;;;9.76;59.61
77823;BME280;67013;49.730;17.292;2024-02-14T10:10:37;99055.23;;;9.83;59.18
77823;BME280;67013;49.730;17.292;2024-02-14T10:13:07;99049.42;;;9.91;58.90
77823;BME280;67013;49.730;17.292;2024-02-14T10:15:36;99050.02;;;9.95;58.54
77823;BME280;67013;49.730;17.292;2024-02-14T10:18:07;99044.81;;;9.98;58.88
77823;BME280;67013;49.730;17.292;2024-02-14T10:20:37;99040.23;;;9.99;58.70
77823;BME280;67013;49.730;17.292;2024-02-14T10:23:12;99042.10;;;9.97;58.32
77823;BME280;67013;49.730;17.292;2024-02-14T10:25:41;99043.01;;;9.90;58.24
77823;BME280;67013;49.730;17.292;2024-02-14T10:28:11;99041.83;;;9.86;58.45
77823;BME280;67013;49.730;17.292;2024-02-14T10:30:41;99041.23;;;9.79;58.28
77823;BME280;67013;49.730;17.292;2024-02-14T10:33:15;99040.25;;;9.69;58.32
77823;BME280;67013;49.730;17.292;2024-02-14T10:35:45;99037.48;;;9.61;58.58
77823;BME280;67013;49.730;17.292;2024-02-14T10:38:17;99031.35;;;9.53;58.58
77823;BME280;67013;49.730;17.292;2024-02-14T10:40:48;99030.00;;;9.43;58.48
77823;BME280;67013;49.730;17.292;2024-02-14T10:43:19;99023.54;;;9.32;58.72
77823;BME280;67013;49.730;17.292;2024-02-14T10:45:49;99024.97;;;9.28;58.94
77823;BME280;67013;49.730;17.292;2024-02-14T10:48:19;99025.04;;;9.24;59.11
77823;BME280;67013;49.730;17.292;2024-02-14T10:50:54;99024.36;;;9.17;59.20
77823;BME280;67013;49.730;17.292;2024-02-14T10:53:27;99019.81;;;9.12;59.46
77823;BME280;67013;49.730;17.292;2024-02-14T10:55:59;99015.66;;;9.08;59.51
77823;BME280;67013;49.730;17.292;2024-02-14T10:58:29;99012.17;;;9.18;59.92
77823;BME280;67013;49.730;17.292;2024-02-14T11:01:00;99014.09;;;9.36;59.34
77823;BME280;67013;49.730;17.292;2024-02-14T11:03:30;99015.81;;;9.60;59.03
77823;BME280;67013;49.730;17.292;2024-02-14T11:06:03;99013.98;;;9.88;59.09
77823;BME280;67013;49.730;17.292;2024-02-14T11:08:32;99007.07;;;10.16;58.17
77823;BME280;67013;49.730;17.292;2024-02-14T11:11:05;98999.52;;;10.40;57.87
77823;BME280;67013;49.730;17.292;2024-02-14T11:13:36;98997.52;;;10.66;57.20
77823;BME280;67013;49.730;17.292;2024-02-14T11:16:10;98992.48;;;10.88;57.15
77823;BME280;67013;49.730;17.292;2024-02-14T11:18:40;98992.11;;;11.09;56.56
77823;BME280;67013;49.730;17.292;2024-02-14T11:21:18;98987.63;;;11.24;55.78
77823;BME280;67013;49.730;17.292;2024-02-14T11:23:55;98986.59;;;11.32;55.52
77823;BME280;67013;49.730;17.292;2024-02-14T11:26:24;98983.36;;;11.42;55.43
77823;BME280;67013;49.730;17.292;2024-02-14T11:29:02;98979.95;;;11.56;55.34
77823;BME280;67013;49.730;17.292;2024-02-14T11:31:36;98979.10;;;11.66;54.75
77823;BME280;67013;49.730;17.292;2024-02-14T11:34:06;98976.85;;;11.73;54.14
77823;BME280;67013;49.730;17.292;2024-02-14T11:36:38;98975.65;;;11.81;54.26
77823;BME280;67013;49.730;17.292;2024-02-14T11:39:07;98973.15;;;11.87;54.18
77823;BME280;67013;49.730;17.292;2024-02-14T11:41:37;98971.77;;;11.92;53.72
77823;BME280;67013;49.730;17.292;2024-02-14T11:44:07;98974.05;;;11.91;53.06
77823;BME280;67013;49.730;17.292;2024-02-14T11:46:38;98972.46;;;11.87;52.73
77823;BME280;67013;49.730;17.292;2024-02-14T11:49:07;98970.83;;;11.86;52.64
77823;BME280;67013;49.730;17.292;2024-02-14T11:51:38;98968.85;;;11.88;53.06
77823;BME280;67013;49.730;17.292;2024-02-14T11:54:10;98966.88;;;11.94;53.11
77823;BME280;67013;49.730;17.292;2024-02-14T11:56:40;98965.33;;;12.04;53.21
77823;BME280;67013;49.730;17.292;2024-02-14T11:59:09;98965.67;;;12.12;53.05
77823;BME280;67013;49.730;17.292;2024-02-14T12:01:39;98959.21;;;12.22;52.49
77823;BME280;67013;49.730;17.292;2024-02-14T12:04:09;98960.96;;;12.29;52.22
77823;BME280;67013;49.730;17.292;2024-02-14T12:06:40;98958.54;;;12.39;51.98
77823;BME280;67013;49.730;17.292;2024-02-14T12:09:11;98955.64;;;12.43;51.63
77823;BME280;67013;49.730;17.292;2024-02-14T12:11:42;98957.76;;;12.45;51.66
77823;BME280;67013;49.730;17.292;2024-02-14T12:14:11;98954.20;;;12.53;51.96
77823;BME280;67013;49.730;17.292;2024-02-14T12:16:42;98958.02;;;12.60;51.50
77823;BME280;67013;49.730;17.292;2024-02-14T12:19:17;98946.95;;;12.66;51.16
77823;BME280;67013;49.730;17.292;2024-02-14T12:21:47;98943.05;;;12.69;50.45
77823;BME280;67013;49.730;17.292;2024-02-14T12:24:17;98940.23;;;12.63;50.40
77823;BME280;67013;49.730;17.292;2024-02-14T12:26:46;98941.95;;;12.56;50.36
77823;BME280;67013;49.730;17.292;2024-02-14T12:29:18;98942.00;;;12.50;50.53
77823;BME280;67013;49.730;17.292;2024-02-14T12:31:48;98939.27;;;12.42;50.35
77823;BME280;67013;49.730;17.292;2024-02-14T12:34:17;98938.16;;;12.33;50.32
77823;BME280;67013;49.730;17.292;2024-02-14T12:36:48;98940.39;;;12.27;50.37
77823;BME280;67013;49.730;17.292;2024-02-14T12:39:18;98943.86;;;12.17;50.47
77823;BME280;67013;49.730;17.292;2024-02-14T12:41:48;98942.64;;;12.07;50.87
77823;BME280;67013;49.730;17.292;2024-02-14T12:44:18;98939.54;;;11.96;51.24
77823;BME280;67013;49.730;17.292;2024-02-14T12:46:47;98941.23;;;11.87;51.31
77823;BME280;67013;49.730;17.292;2024-02-14T12:49:17;98933.98;;;11.76;51.47
77823;BME280;67013;49.730;17.292;2024-02-14T12:51:46;98927.80;;;11.62;51.80
77823;BME280;67013;49.730;17.292;2024-02-14T12:54:17;98929.84;;;11.50;52.05
77823;BME280;67013;49.730;17.292;2024-02-14T12:56:47;98923.80;;;11.42;52.59
77823;BME280;67013;49.730;17.292;2024-02-14T12:59:18;98916.45;;;11.34;52.47
77823;BME280;67013;49.730;17.292;2024-02-14T13:01:48;98915.21;;;11.21;52.54
77823;BME280;67013;49.730;17.292;2024-02-14T13:04:18;98916.74;;;11.01;52.33
77823;BME280;67013;49.730;17.292;2024-02-14T13:06:48;98917.75;;;10.86;52.78
77823;BME280;67013;49.730;17.292;2024-02-14T13:09:18;98913.71;;;10.73;53.43
77823;BME280;67013;49.730;17.292;2024-02-14T13:11:48;98910.55;;;10.64;53.61